Time;durP1;ratioP1;P1;durP2;ratioP2;P2;SDS_P1;SDS_P2;PMS_P1;PMS_P2;Temp;Humidity;BMP_temperature;BMP_pressure;BME280_temperature;BME280_humidity;BME280_pressure;Samples;Min_cycle;Max_cycle;Signal;HPM_P1;HPM_P2
2023/12/27 00:01:05;;;;;;;6.95;2.83;;;;;;;11.08;47.27;99897.56;3128364;28;20064;-66
2023/12/27 00:02:37;;;;;;;10.55;2.70;;;;;;;11.22;47.17;99889.97;3128859;28;20091;-67
2023/12/27 00:04:08;;;;;;;8.25;3.20;;;;;;;11.35;46.48;99895.44;3129355;28;20869;-67
2023/12/27 00:05:41;;;;;;;6.68;2.83;;;;;;;11.39;46.72;99897.00;3129705;28;20158;-67
2023/12/27 00:07:12;;;;;;;8.67;2.80;;;;;;;11.44;46.49;99899.38;3128477;28;20502;-68
2023/12/27 00:08:44;;;;;;;11.23;3.20;;;;;;;11.50;46.32;99892.09;3128474;28;20056;-68
2023/12/27 00:10:15;;;;;;;8.43;2.95;;;;;;;11.51;46.47;99893.81;3128475;28;20127;-67
2023/12/27 00:11:46;;;;;;;7.13;2.80;;;;;;;11.55;46.22;99892.72;3128624;28;20387;-67
2023/12/27 00:13:20;;;;;;;10.15;3.00;;;;;;;11.60;46.42;99898.59;3128150;28;20220;-67
2023/12/27 00:14:51;;;;;;;9.32;3.47;;;;;;;11.64;45.98;99901.03;3128519;28;20094;-67
2023/12/27 00:16:22;;;;;;;7.30;2.85;;;;;;;11.69;45.82;99897.31;3128500;28;20086;-67
2023/12/27 00:17:53;;;;;;;6.25;2.28;;;;;;;11.70;45.72;99898.97;3128496;28;20592;-68
2023/12/27 00:19:25;;;;;;;6.07;2.58;;;;;;;11.73;45.52;99895.38;3128632;28;20057;-68
2023/12/27 00:20:56;;;;;;;8.15;2.42;;;;;;;11.46;45.46;99854.06;3128514;28;20052;-68
2023/12/27 00:22:28;;;;;;;6.75;2.45;;;;;;;11.81;45.67;99906.28;3128466;28;20109;-68
2023/12/27 00:23:59;;;;;;;6.63;2.60;;;;;;;11.86;45.49;99906.09;3128801;28;20060;-68
2023/12/27 00:25:31;;;;;;;4.30;2.30;;;;;;;11.87;45.13;99902.59;3128553;28;20456;-67
2023/12/27 00:27:02;;;;;;;6.63;2.50;;;;;;;11.90;44.93;99911.09;3128067;28;20049;-68
2023/12/27 00:28:35;;;;;;;8.48;2.75;;;;;;;11.88;45.21;99905.09;3128539;28;20060;-67
2023/12/27 00:30:07;;;;;;;6.43;2.30;;;;;;;11.93;44.85;99912.72;3128668;28;20148;-66
2023/12/27 00:31:38;;;;;;;6.70;2.40;;;;;;;11.91;45.18;99909.31;3128396;28;20053;-66
2023/12/27 00:33:09;;;;;;;6.15;2.28;;;;;;;11.96;44.73;99923.00;3128291;28;20052;-67
2023/12/27 00:34:41;;;;;;;8.75;2.20;;;;;;;11.97;44.69;99922.91;3128477;28;20052;-67
2023/12/27 00:36:12;;;;;;;9.05;2.42;;;;;;;11.98;44.94;99927.22;3128141;28;20049;-67
2023/12/27 00:37:44;;;;;;;4.32;2.20;;;;;;;12.06;44.83;99935.50;3128285;28;20189;-68
2023/12/27 00:39:16;;;;;;;6.55;2.38;;;;;;;12.11;44.56;99937.91;3128315;28;20052;-67
2023/12/27 00:40:48;;;;;;;8.60;2.50;;;;;;;12.13;44.57;99935.25;3128287;28;20045;-67
2023/12/27 00:42:19;;;;;;;5.88;2.40;;;;;;;12.13;44.47;99936.06;3128397;28;20057;-67
2023/12/27 00:43:53;;;;;;;5.38;2.20;;;;;;;12.19;44.49;99947.97;3128184;28;20094;-67
2023/12/27 00:45:23;;;;;;;8.38;3.40;;;;;;;12.20;44.13;99947.06;3128147;28;20055;-67
2023/12/27 00:46:56;;;;;;;5.50;3.15;;;;;;;12.17;44.49;99939.38;3128252;28;20518;-67
2023/12/27 00:48:27;;;;;;;6.95;2.42;;;;;;;12.20;44.55;99952.28;3128211;28;20097;-67
2023/12/27 00:49:59;;;;;;;7.50;2.15;;;;;;;12.19;44.38;99942.75;3128091;28;20052;-68
2023/12/27 00:51:30;;;;;;;7.65;2.20;;;;;;;12.17;44.54;99935.00;3128154;28;20053;-67
2023/12/27 00:53:02;;;;;;;5.53;1.73;;;;;;;12.21;44.30;99948.72;3127951;28;20530;-67
2023/12/27 00:54:32;;;;;;;4.03;1.85;;;;;;;12.16;44.64;99935.09;3127458;28;20573;-67
2023/12/27 00:56:05;;;;;;;5.20;1.92;;;;;;;12.25;44.68;99945.06;3127903;28;20048;-68
2023/12/27 00:57:36;;;;;;;9.17;2.47;;;;;;;12.21;44.45;99953.97;3128396;28;20053;-67
2023/12/27 00:59:09;;;;;;;6.13;2.20;;;;;;;12.24;44.41;99951.19;3127914;28;20216;-67
2023/12/27 01:00:40;;;;;;;5.55;1.90;;;;;;;12.24;44.87;99956.41;3128156;28;20057;-67
2023/12/27 01:02:12;;;;;;;4.72;2.00;;;;;;;12.24;44.51;99952.03;3128048;28;20516;-67
2023/12/27 01:03:43;;;;;;;5.97;2.13;;;;;;;12.24;44.74;99953.81;3127873;28;20052;-66
2023/12/27 01:05:15;;;;;;;7.25;2.13;;;;;;;12.26;44.65;99957.19;3128015;28;20056;-67
2023/12/27 01:06:45;;;;;;;8.48;2.42;;;;;;;12.26;44.50;99957.19;3127722;28;20126;-66
2023/12/27 01:08:17;;;;;;;3.60;1.83;;;;;;;12.27;44.43;99951.03;3127681;28;20053;-66
2023/12/27 01:09:49;;;;;;;7.00;1.90;;;;;;;12.28;44.46;99950.13;3127812;28;20560;-66
2023/12/27 01:11:20;;;;;;;10.35;2.28;;;;;;;12.28;44.86;99955.34;3127793;28;20131;-66
2023/12/27 01:12:51;;;;;;;6.85;1.90;;;;;;;12.28;44.39;99952.75;3127544;28;20060;-67
2023/12/27 01:14:24;;;;;;;7.88;1.92;;;;;;;12.29;44.54;99957.03;3127961;28;20522;-67
2023/12/27 01:15:58;;;;;;;8.85;1.92;;;;;;;12.26;44.50;99950.19;3127907;28;20118;-67
2023/12/27 01:17:29;;;;;;;9.40;2.15;;;;;;;12.26;44.60;99958.03;3127960;28;20128;-66
2023/12/27 01:19:00;;;;;;;5.35;2.55;;;;;;;12.25;44.41;99956.34;3127827;28;20056;-67
2023/12/27 01:20:32;;;;;;;4.55;1.70;;;;;;;12.28;44.82;99961.41;3127859;28;20059;-67
2023/12/27 01:22:04;;;;;;;5.97;1.92;;;;;;;12.27;44.41;99957.13;3127530;28;20072;-67
2023/12/27 01:23:35;;;;;;;5.15;1.98;;;;;;;12.30;44.68;99961.31;3127826;28;20117;-68
2023/12/27 01:25:07;;;;;;;4.63;1.60;;;;;;;12.29;44.74;99954.44;3127697;28;20067;-67
2023/12/27 01:26:38;;;;;;;4.45;1.70;;;;;;;12.32;44.69;99961.28;3127996;28;20057;-68
2023/12/27 01:28:09;;;;;;;6.43;2.42;;;;;;;12.32;44.36;99951.66;3127480;28;20098;-67
2023/12/27 01:29:42;;;;;;;6.18;2.15;;;;;;;12.35;44.39;99954.13;3127669;28;20135;-67
2023/12/27 01:31:13;;;;;;;6.57;2.22;;;;;;;12.33;44.71;99958.56;3127810;28;20540;-67
2023/12/27 01:32:45;;;;;;;5.97;2.15;;;;;;;11.61;44.66;99826.38;3127922;28;20060;-67
2023/12/27 01:34:18;;;;;;;6.50;2.67;;;;;;;12.35;44.42;99950.66;3127699;28;20053;-67
2023/12/27 01:35:49;;;;;;;10.07;2.13;;;;;;;12.37;44.40;99954.91;3127524;28;20082;-67
2023/12/27 01:37:20;;;;;;;6.03;1.90;;;;;;;12.37;44.31;99952.28;3127730;28;20067;-67
2023/12/27 01:38:52;;;;;;;6.00;1.92;;;;;;;11.98;44.63;99890.69;3127503;28;20437;-67
2023/12/27 01:40:23;;;;;;;4.40;1.98;;;;;;;12.37;44.55;99949.66;3127583;28;20051;-67
2023/12/27 01:41:54;;;;;;;7.25;1.90;;;;;;;12.31;44.68;99944.75;3127559;28;20057;-68
2023/12/27 01:43:25;;;;;;;7.18;2.08;;;;;;;12.36;44.57;99947.97;3127447;28;20048;-67
2023/12/27 01:44:59;;;;;;;7.95;1.95;;;;;;;12.41;44.35;99960.81;3127511;28;20049;-66
2023/12/27 01:46:30;;;;;;;4.05;1.75;;;;;;;12.38;44.64;99964.41;3127664;28;20053;-67
2023/12/27 01:48:02;;;;;;;4.80;1.80;;;;;;;12.38;44.58;99958.34;3127584;28;20460;-68
2023/12/27 01:49:33;;;;;;;5.70;1.80;;;;;;;12.44;44.40;99961.50;3127658;28;20110;-67
2023/12/27 01:51:06;;;;;;;6.45;2.15;;;;;;;12.47;44.05;99961.34;3127546;28;20536;-67
2023/12/27 01:52:37;;;;;;;7.65;1.85;;;;;;;12.49;44.36;99959.50;3127573;28;20624;-67
2023/12/27 01:54:08;;;;;;;5.70;2.40;;;;;;;12.51;44.44;99952.44;3127230;28;20056;-66
2023/12/27 01:55:39;;;;;;;5.15;1.60;;;;;;;12.51;44.32;99957.66;3127495;28;20060;-67
2023/12/27 01:57:12;;;;;;;6.50;2.10;;;;;;;12.61;44.08;99946.75;3132639;28;20537;-68
2023/12/27 01:58:43;;;;;;;7.38;2.30;;;;;;;12.62;44.08;99941.44;3127536;28;20133;-68
2023/12/27 02:00:16;;;;;;;5.85;2.42;;;;;;;12.36;44.11;99903.56;3127669;28;20053;-68
2023/12/27 02:01:47;;;;;;;7.85;2.45;;;;;;;12.71;44.20;99950.56;3127393;28;20053;-68
2023/12/27 02:03:21;;;;;;;6.22;2.42;;;;;;;12.69;44.32;99947.19;3127225;28;20486;-67
2023/12/27 02:04:52;;;;;;;7.13;1.83;;;;;;;12.67;44.65;99951.66;3127530;28;20063;-68
2023/12/27 02:06:24;;;;;;;7.38;2.42;;;;;;;12.71;44.34;99951.41;3127246;28;20057;-68
2023/12/27 02:07:56;;;;;;;8.98;2.30;;;;;;;12.70;44.73;99954.09;3127123;28;20053;-69
2023/12/27 02:09:28;;;;;;;5.10;2.10;;;;;;;12.74;44.61;99955.63;3127308;28;20053;-68
2023/12/27 02:10:59;;;;;;;6.88;2.45;;;;;;;12.63;44.29;99943.13;3127362;28;20064;-68
2023/12/27 02:12:32;;;;;;;4.80;1.90;;;;;;;12.71;44.30;99946.16;3127245;28;20045;-68
2023/12/27 02:14:06;;;;;;;6.00;2.30;;;;;;;12.80;44.55;99962.31;3127285;28;20049;-66
2023/12/27 02:15:39;;;;;;;5.22;1.95;;;;;;;12.85;44.67;99965.53;3127332;28;20064;-66
2023/12/27 02:17:09;;;;;;;;;;;;;;;12.76;44.61;99956.41;3127581;28;20422;-67
2023/12/27 02:18:42;;;;;;;10.23;2.72;;;;;;;12.79;44.78;99958.00;3126894;28;20055;-67
2023/12/27 02:20:14;;;;;;;5.82;1.60;;;;;;;12.82;44.66;99961.31;3127218;28;20065;-66
2023/12/27 02:21:47;;;;;;;7.93;2.50;;;;;;;12.87;44.57;99955.84;3127355;28;20065;-66
2023/12/27 02:23:20;;;;;;;5.72;2.10;;;;;;;12.91;44.27;99960.81;3127451;28;20052;-67
2023/12/27 02:24:55;;;;;;;7.38;2.03;;;;;;;12.91;44.32;99966.06;3127326;28;20112;-67
2023/12/27 02:26:25;;;;;;;6.18;1.80;;;;;;;12.90;44.56;99960.91;3127212;28;20103;-68
2023/12/27 02:27:57;;;;;;;7.55;2.20;;;;;;;12.98;44.27;99969.19;3126891;28;20045;-67
2023/12/27 02:29:29;;;;;;;8.30;2.28;;;;;;;13.00;44.41;99963.88;3127054;28;20144;-67
2023/12/27 02:31:00;;;;;;;8.73;2.30;;;;;;;12.97;44.55;99965.72;3127465;28;20056;-67
2023/12/27 02:32:32;;;;;;;4.38;1.98;;;;;;;12.95;44.35;99962.38;3126886;28;20055;-67
2023/12/27 02:34:03;;;;;;;5.43;2.20;;;;;;;13.01;44.25;99976.88;3127203;28;20151;-67
2023/12/27 02:35:35;;;;;;;5.90;1.90;;;;;;;13.02;44.43;99975.13;3127168;28;20079;-67
2023/12/27 02:37:06;;;;;;;8.95;2.50;;;;;;;13.03;44.22;99976.81;3127143;28;20156;-66
2023/12/27 02:38:38;;;;;;;4.72;1.80;;;;;;;13.01;44.33;99976.88;3126824;28;20049;-66
2023/12/27 02:40:11;;;;;;;5.00;1.77;;;;;;;13.01;44.46;99983.88;3127006;28;20056;-67
2023/12/27 02:41:43;;;;;;;8.15;2.15;;;;;;;13.02;44.18;99988.19;3127062;28;20053;-68
2023/12/27 02:43:13;;;;;;;6.70;2.25;;;;;;;13.03;44.31;99987.25;3127070;28;20052;-68
2023/12/27 02:44:45;;;;;;;4.07;1.77;;;;;;;13.00;44.52;99985.66;3127155;28;20422;-67
2023/12/27 02:46:17;;;;;;;5.95;2.10;;;;;;;13.01;44.08;99987.31;3127135;28;20049;-67
2023/12/27 02:47:48;;;;;;;4.43;1.95;;;;;;;13.00;44.13;99987.41;3127147;28;20113;-67
2023/12/27 02:49:20;;;;;;;8.10;3.10;;;;;;;12.98;44.46;99993.59;3127190;28;20498;-68
2023/12/27 02:50:51;;;;;;;7.57;1.90;;;;;;;13.00;44.35;99995.25;3126984;28;20053;-67
2023/12/27 02:52:23;;;;;;;6.68;1.95;;;;;;;12.66;44.20;99942.97;3128765;28;20415;-67
2023/12/27 02:53:54;;;;;;;7.68;2.03;;;;;;;12.97;44.11;99993.66;3128787;28;20049;-67
2023/12/27 02:55:27;;;;;;;5.47;2.20;;;;;;;12.95;44.44;99998.09;3127095;28;20720;-67
2023/12/27 02:56:58;;;;;;;7.93;2.15;;;;;;;12.91;44.23;99999.19;3126776;28;20053;-67
2023/12/27 02:58:30;;;;;;;5.18;1.80;;;;;;;12.88;44.54;100008.03;3127036;28;20520;-67
2023/12/27 03:00:03;;;;;;;4.60;2.38;;;;;;;12.87;44.70;100016.81;3126873;28;20060;-67
2023/12/27 03:01:35;;;;;;;6.07;1.60;;;;;;;12.84;44.59;100016.13;3126631;28;20135;-67
2023/12/27 03:03:05;;;;;;;5.57;2.00;;;;;;;12.80;44.77;100011.97;3127021;28;20057;-68
2023/12/27 03:04:37;;;;;;;9.15;2.17;;;;;;;12.81;44.53;100017.13;3126832;28;20052;-67
2023/12/27 03:06:08;;;;;;;5.82;2.28;;;;;;;12.76;44.43;100013.88;3126627;28;20581;-67
2023/12/27 03:07:40;;;;;;;5.40;2.20;;;;;;;12.73;44.60;100021.88;3126650;28;20056;-68
2023/12/27 03:09:11;;;;;;;4.47;1.80;;;;;;;12.70;44.28;100022.88;3127025;28;20053;-68
2023/12/27 03:10:45;;;;;;;7.13;2.08;;;;;;;12.67;44.41;100020.44;3127223;28;20206;-68
2023/12/27 03:12:15;;;;;;;;;;;;;;;12.49;44.70;100016.97;3127510;28;20056;-69
2023/12/27 03:13:47;;;;;;;6.45;2.10;;;;;;;12.48;44.66;100028.34;3126643;28;19974;-69
2023/12/27 03:15:19;;;;;;;6.68;1.60;;;;;;;12.50;44.49;100020.41;3126795;28;20049;-68
2023/12/27 03:16:50;;;;;;;3.72;1.58;;;;;;;12.45;44.71;100019.78;3127028;28;20182;-69
2023/12/27 03:18:22;;;;;;;5.47;2.20;;;;;;;12.48;44.76;100030.97;3127631;28;20049;-68
2023/12/27 03:19:53;;;;;;;4.22;1.83;;;;;;;12.45;44.73;100032.84;3129388;28;20111;-67
2023/12/27 03:21:25;;;;;;;4.80;2.10;;;;;;;12.45;44.77;100033.72;3128941;28;20230;-66
2023/12/27 03:22:56;;;;;;;6.25;2.33;;;;;;;12.50;44.62;100039.53;3129123;28;20202;-67
2023/12/27 03:24:28;;;;;;;4.72;1.92;;;;;;;12.46;44.56;100032.78;3129152;28;20666;-67
2023/12/27 03:26:01;;;;;;;6.05;2.25;;;;;;;12.42;44.91;100025.16;3128893;28;20486;-66
2023/12/27 03:27:32;;;;;;;5.82;1.88;;;;;;;12.42;45.11;100025.16;3129144;28;20052;-67
2023/12/27 03:29:04;;;;;;;4.78;1.70;;;;;;;12.39;45.10;100020.09;3129017;28;20045;-67
2023/12/27 03:30:35;;;;;;;8.25;2.05;;;;;;;12.34;45.09;100011.66;3128957;28;20059;-67
2023/12/27 03:32:07;;;;;;;5.65;2.17;;;;;;;12.35;45.02;100015.97;3129018;28;20057;-67
2023/12/27 03:33:37;;;;;;;6.20;1.80;;;;;;;12.31;45.15;100024.88;3129311;28;20049;-68
2023/12/27 03:35:09;;;;;;;6.05;2.08;;;;;;;12.31;45.37;100028.31;3129169;28;20551;-68
2023/12/27 03:36:40;;;;;;;3.65;1.67;;;;;;;12.27;45.33;100017.19;3116544;28;20055;-68
2023/12/27 03:38:12;;;;;;;6.38;2.78;;;;;;;12.25;45.49;100019.03;3128333;28;20119;-68
2023/12/27 03:39:43;;;;;;;4.82;2.00;;;;;;;12.23;45.64;100028.69;3128725;28;20239;-68
2023/12/27 03:41:16;;;;;;;4.20;2.10;;;;;;;12.25;45.29;100028.63;3128819;28;20474;-68
2023/12/27 03:42:47;;;;;;;5.85;1.75;;;;;;;12.23;45.44;100033.06;3128695;28;20666;-67
2023/12/27 03:44:19;;;;;;;4.05;1.60;;;;;;;12.20;45.77;100033.22;3129073;28;20143;-68
2023/12/27 03:45:50;;;;;;;7.43;2.13;;;;;;;12.22;46.00;100026.16;3128916;28;20053;-68
2023/12/27 03:47:22;;;;;;;5.25;1.92;;;;;;;12.23;46.12;100030.44;3128836;28;20202;-68
2023/12/27 03:48:53;;;;;;;4.80;2.00;;;;;;;12.25;46.50;100026.00;3128964;28;20132;-68
2023/12/27 03:50:25;;;;;;;7.43;2.05;;;;;;;12.28;46.41;100031.94;3134602;28;20049;-68
2023/12/27 03:53:46;;;;;;;9.45;2.30;;;;;;;12.31;46.73;100030.94;3128884;28;20489;-68
2023/12/27 03:55:18;;;;;;;5.80;1.95;;;;;;;12.34;47.10;100019.50;3128634;28;20049;-68
2023/12/27 03:56:51;;;;;;;8.57;2.28;;;;;;;12.38;46.96;100024.47;3129001;28;20052;-68
2023/12/27 03:58:22;;;;;;;4.55;1.80;;;;;;;12.37;46.94;100019.34;3128574;28;20135;-68
2023/12/27 03:59:53;;;;;;;7.05;2.25;;;;;;;12.42;46.75;100026.03;3128594;28;20111;-68
2023/12/27 04:01:24;;;;;;;8.63;2.45;;;;;;;12.43;46.71;100030.34;3128661;28;20061;-68
2023/12/27 04:02:56;;;;;;;4.30;2.00;;;;;;;12.45;47.06;100020.66;3129002;28;20053;-68
2023/12/27 04:04:27;;;;;;;7.65;2.35;;;;;;;12.47;46.89;100024.03;3128653;28;20055;-68
2023/12/27 04:05:59;;;;;;;5.82;2.08;;;;;;;12.36;46.94;100005.41;3128786;28;20056;-66
2023/12/27 04:07:30;;;;;;;5.82;1.90;;;;;;;12.50;46.80;100028.25;3128690;28;20060;-67
2023/12/27 04:09:02;;;;;;;7.10;2.10;;;;;;;12.52;47.00;100035.09;3128416;28;20048;-67
2023/12/27 04:10:33;;;;;;;6.03;2.20;;;;;;;12.52;47.01;100031.66;3128521;28;20060;-68
2023/12/27 04:12:07;;;;;;;6.72;2.20;;;;;;;12.52;46.75;100024.66;3128552;28;20055;-68
2023/12/27 04:13:38;;;;;;;5.82;2.10;;;;;;;12.53;46.82;100035.94;3128431;28;20053;-68
2023/12/27 04:15:10;;;;;;;5.70;2.53;;;;;;;12.55;46.76;100038.50;3128919;28;20461;-68
2023/12/27 04:16:41;;;;;;;9.32;2.67;;;;;;;12.53;47.08;100038.56;3128822;28;20099;-68
2023/12/27 04:18:13;;;;;;;5.15;2.03;;;;;;;12.53;47.14;100052.44;3128300;28;20086;-68
2023/12/27 04:19:43;;;;;;;6.05;2.13;;;;;;;12.53;47.01;100054.22;3128625;28;20442;-69
2023/12/27 04:21:16;;;;;;;12.55;1.95;;;;;;;12.53;46.81;100057.69;3128303;28;20068;-67
2023/12/27 04:22:46;;;;;;;4.80;1.85;;;;;;;12.55;46.88;100047.16;3128581;28;20052;-67
2023/12/27 04:24:18;;;;;;;3.92;1.35;;;;;;;12.52;46.95;100048.16;3128494;28;20135;-68
2023/12/27 04:25:49;;;;;;;6.60;2.13;;;;;;;12.60;46.86;100055.63;3128489;28;20053;-68
2023/12/27 04:27:22;;;;;;;8.50;2.33;;;;;;;12.53;46.79;100054.22;3128457;28;20059;-68
2023/12/27 04:28:53;;;;;;;6.30;2.33;;;;;;;12.61;46.89;100074.75;3128211;28;20093;-68
2023/12/27 04:30:25;;;;;;;7.53;2.25;;;;;;;12.63;46.69;100076.38;3128296;28;20056;-67
2023/12/27 04:31:56;;;;;;;5.07;2.22;;;;;;;12.63;46.78;100076.38;3128537;28;20049;-68
2023/12/27 04:33:28;;;;;;;8.40;2.53;;;;;;;12.65;46.82;100086.75;3128554;28;20259;-67
2023/12/27 04:34:59;;;;;;;5.93;1.95;;;;;;;12.66;46.65;100085.81;3116078;28;20063;-68
2023/12/27 04:36:31;;;;;;;7.53;2.05;;;;;;;12.67;46.86;100084.91;3127853;28;20072;-67
2023/12/27 04:38:02;;;;;;;7.72;2.22;;;;;;;12.67;46.63;100087.53;3128394;28;20063;-67
2023/12/27 04:39:35;;;;;;;4.95;2.03;;;;;;;12.68;46.50;100090.03;3128307;28;20467;-67
2023/12/27 04:41:09;;;;;;;6.18;2.10;;;;;;;12.69;46.77;100085.69;3128242;28;20122;-68
2023/12/27 04:42:42;;;;;;;5.57;2.00;;;;;;;12.70;46.76;100103.03;3128167;28;20085;-68
2023/12/27 04:44:13;;;;;;;4.85;1.80;;;;;;;12.67;46.43;100097.97;3128169;28;20477;-67
2023/12/27 04:45:45;;;;;;;4.53;1.80;;;;;;;12.68;46.72;100097.88;3131939;28;20048;-67
2023/12/27 04:47:15;;;;;;;5.50;1.73;;;;;;;12.68;46.80;100097.88;3134683;28;20130;-67
2023/12/27 04:48:47;;;;;;;4.55;1.80;;;;;;;12.68;46.50;100103.09;3128297;28;20132;-68
2023/12/27 04:50:18;;;;;;;6.65;1.90;;;;;;;12.72;46.82;100109.06;3128002;28;20348;-68
2023/12/27 04:51:50;;;;;;;6.47;2.17;;;;;;;12.75;46.60;100106.28;3128081;28;20117;-68
2023/12/27 04:53:21;;;;;;;6.57;1.92;;;;;;;12.78;46.65;100107.88;3128164;28;20071;-68
2023/12/27 04:54:53;;;;;;;5.20;1.95;;;;;;;12.77;46.91;100098.34;3128216;28;20057;-68
2023/12/27 04:56:23;;;;;;;5.40;2.13;;;;;;;12.77;46.94;100100.97;3127959;28;20095;-68
2023/12/27 04:57:57;;;;;;;9.10;1.77;;;;;;;12.74;46.98;100099.34;3128257;28;20056;-68
2023/12/27 04:59:30;;;;;;;8.02;2.03;;;;;;;12.71;46.68;100099.50;3115906;28;20406;-68
2023/12/27 05:01:02;;;;;;;5.70;2.10;;;;;;;12.69;46.91;100107.44;3127942;28;20080;-68
2023/12/27 05:02:34;;;;;;;8.73;2.25;;;;;;;12.00;47.04;100001.06;3128338;28;20057;-68
2023/12/27 05:04:05;;;;;;;7.55;3.08;;;;;;;12.68;46.83;100120.56;3127978;28;20408;-67
2023/12/27 05:05:36;;;;;;;6.07;2.00;;;;;;;12.67;47.12;100124.94;3127871;28;20091;-68
2023/12/27 05:07:08;;;;;;;5.95;2.17;;;;;;;12.65;46.87;100120.72;3127424;28;20156;-68
2023/12/27 05:08:41;;;;;;;4.35;1.95;;;;;;;12.65;46.92;100123.31;3127932;28;20053;-68
2023/12/27 05:10:12;;;;;;;5.90;2.13;;;;;;;12.57;47.05;100115.00;3127954;28;20057;-68
2023/12/27 05:11:43;;;;;;;4.88;2.20;;;;;;;12.62;47.28;100120.84;3128057;28;20060;-68
2023/12/27 05:13:16;;;;;;;7.65;2.22;;;;;;;12.62;47.24;100120.84;3127647;28;20540;-68
2023/12/27 05:14:47;;;;;;;7.97;2.28;;;;;;;12.59;47.38;100126.22;3127712;28;20077;-68
2023/12/27 05:16:18;;;;;;;8.10;2.35;;;;;;;12.57;47.24;100128.94;3127967;28;20075;-68
2023/12/27 05:17:50;;;;;;;5.68;1.67;;;;;;;12.53;47.09;100127.38;3127836;28;20095;-67
2023/12/27 05:19:21;;;;;;;5.85;2.13;;;;;;;12.55;47.44;100124.69;3127758;28;20088;-68
2023/12/27 05:20:53;;;;;;;3.83;1.88;;;;;;;12.50;47.20;100133.59;3127650;28;20049;-68
2023/12/27 05:22:23;;;;;;;7.10;1.88;;;;;;;12.47;47.60;100140.72;3127563;28;20270;-68
2023/12/27 05:23:55;;;;;;;5.00;2.05;;;;;;;12.48;47.49;100135.44;3127996;28;20122;-68
2023/12/27 05:25:26;;;;;;;5.93;2.03;;;;;;;12.45;47.79;100125.16;3115698;28;20053;-68
2023/12/27 05:26:58;;;;;;;9.63;2.00;;;;;;;12.42;47.55;100134.88;3126960;28;20080;-68
2023/12/27 05:28:30;;;;;;;4.15;1.92;;;;;;;12.40;47.88;100140.19;3127607;28;20467;-68
2023/12/27 05:30:03;;;;;;;8.80;3.08;;;;;;;12.01;47.94;100091.53;3127887;28;20049;-68
2023/12/27 05:31:34;;;;;;;7.93;2.50;;;;;;;12.33;48.14;100153.59;3127657;28;20056;-67
2023/12/27 05:33:06;;;;;;;5.60;2.00;;;;;;;12.33;47.70;100159.66;3127709;28;20526;-68
2023/12/27 05:34:37;;;;;;;7.43;2.28;;;;;;;12.29;48.21;100160.72;3127708;28;20525;-68
2023/12/27 05:36:09;;;;;;;6.80;2.00;;;;;;;12.27;48.12;100160.81;3127370;28;20075;-68
2023/12/27 05:37:41;;;;;;;6.45;2.17;;;;;;;12.24;48.17;100165.28;3127505;28;20057;-68
2023/12/27 05:39:12;;;;;;;6.30;1.92;;;;;;;12.21;47.92;100161.06;3127401;28;20056;-67
2023/12/27 05:40:44;;;;;;;6.28;2.00;;;;;;;12.21;48.11;100155.00;3127064;28;20522;-68
2023/12/27 05:42:15;;;;;;;3.80;1.70;;;;;;;12.18;48.50;100162.97;3122549;28;20166;-68
2023/12/27 05:43:48;;;;;;;7.43;2.47;;;;;;;12.16;48.36;100164.81;3127716;28;20072;-68
2023/12/27 05:45:19;;;;;;;;;;;;;;;11.98;48.75;100169.97;3128009;28;20049;-68
2023/12/27 05:46:50;;;;;;;12.55;2.85;;;;;;;11.98;48.56;100175.19;3127592;28;20781;-68
2023/12/27 05:48:21;;;;;;;9.95;3.58;;;;;;;11.99;49.01;100170.81;3127444;28;20053;-68
2023/12/27 05:49:53;;;;;;;6.43;2.63;;;;;;;12.01;48.98;100171.59;3127733;28;20119;-68
2023/12/27 05:51:24;;;;;;;8.32;2.67;;;;;;;11.99;48.88;100176.88;3127445;28;20729;-68
2023/12/27 05:52:56;;;;;;;5.20;2.13;;;;;;;11.98;48.86;100177.78;3127493;28;20060;-68
2023/12/27 05:54:27;;;;;;;4.68;2.15;;;;;;;11.95;49.31;100170.09;3127428;28;20540;-68
2023/12/27 05:55:58;;;;;;;9.82;2.63;;;;;;;11.96;49.43;100178.78;3127196;28;20067;-68
2023/12/27 05:57:29;;;;;;;5.88;2.13;;;;;;;11.95;49.06;100177.94;3127580;28;20063;-68
2023/12/27 05:59:03;;;;;;;5.30;2.33;;;;;;;11.96;49.32;100177.00;3127030;28;20049;-68
2023/12/27 06:00:33;;;;;;;4.80;2.30;;;;;;;11.94;49.52;100184.03;3127352;28;20053;-68
2023/12/27 06:02:06;;;;;;;4.93;2.05;;;;;;;11.95;49.22;100179.66;3127458;28;20059;-68
2023/12/27 06:03:37;;;;;;;5.18;1.80;;;;;;;11.95;49.18;100171.84;3127253;28;20059;-68
2023/12/27 06:05:09;;;;;;;5.68;2.53;;;;;;;11.96;49.38;100192.66;3127325;28;20465;-68
2023/12/27 06:06:40;;;;;;;5.32;2.10;;;;;;;11.95;49.58;100190.09;3126899;28;20052;-68
2023/12/27 06:08:12;;;;;;;5.75;2.20;;;;;;;11.95;49.43;100188.38;3127272;28;20156;-68
2023/12/27 06:09:43;;;;;;;4.80;2.40;;;;;;;11.95;49.16;100182.28;3127318;28;20068;-68
2023/12/27 06:11:15;;;;;;;5.93;2.42;;;;;;;11.95;49.09;100175.31;3127400;28;20045;-68
2023/12/27 06:12:46;;;;;;;8.18;2.03;;;;;;;11.96;49.38;100184.00;3127036;28;20052;-68
2023/12/27 06:14:19;;;;;;;5.47;2.15;;;;;;;11.95;49.28;100188.38;3127374;28;20060;-68
2023/12/27 06:15:50;;;;;;;5.80;2.20;;;;;;;11.95;49.44;100188.38;3127303;28;20057;-68
2023/12/27 06:17:22;;;;;;;9.18;2.60;;;;;;;11.95;49.37;100190.97;3127106;28;20463;-68
2023/12/27 06:18:54;;;;;;;6.82;2.60;;;;;;;11.89;49.13;100188.66;3127465;28;20151;-68
2023/12/27 06:20:26;;;;;;;8.63;2.42;;;;;;;11.96;49.15;100203.09;3118076;28;20045;-68
2023/12/27 06:21:57;;;;;;;8.02;2.40;;;;;;;12.01;49.47;100198.53;3127189;28;20139;-67
2023/12/27 06:23:29;;;;;;;7.00;2.67;;;;;;;12.05;49.33;100207.91;3127274;28;20136;-68
2023/12/27 06:25:00;;;;;;;6.97;2.47;;;;;;;12.06;48.99;100201.75;3127351;28;20056;-68
2023/12/27 06:26:32;;;;;;;7.25;3.30;;;;;;;12.13;49.00;100201.53;3127427;28;20056;-68
2023/12/27 06:28:04;;;;;;;10.43;2.60;;;;;;;12.17;49.20;100197.84;3127340;28;20053;-68
2023/12/27 06:29:39;;;;;;;8.52;2.80;;;;;;;12.15;49.20;100192.69;3127088;28;20612;-68
2023/12/27 06:31:10;;;;;;;9.43;3.17;;;;;;;12.25;48.78;100207.03;3127430;28;20056;-68
2023/12/27 06:32:42;;;;;;;6.63;2.72;;;;;;;12.33;48.95;100209.25;3127422;28;20143;-68
2023/12/27 06:34:12;;;;;;;5.93;2.40;;;;;;;12.41;48.71;100220.22;3127106;28;20521;-67
2023/12/27 06:35:44;;;;;;;5.32;2.20;;;;;;;12.49;48.85;100209.44;3126926;28;20230;-68
2023/12/27 06:37:15;;;;;;;11.70;3.05;;;;;;;12.57;48.34;100215.16;3127037;28;20052;-68
2023/12/27 06:38:48;;;;;;;9.52;2.60;;;;;;;12.66;48.63;100211.22;3131089;28;20494;-67
2023/12/27 06:40:19;;;;;;;6.07;2.42;;;;;;;12.69;48.15;100201.50;3126928;28;20053;-68
2023/12/27 06:41:51;;;;;;;6.05;2.38;;;;;;;12.77;48.28;100208.97;3126920;28;20503;-67
2023/12/27 06:43:21;;;;;;;7.53;2.60;;;;;;;12.89;47.87;100217.97;3126707;28;20850;-67
2023/12/27 06:44:55;;;;;;;7.50;2.83;;;;;;;12.97;48.04;100228.91;3127338;28;20108;-68
2023/12/27 06:46:26;;;;;;;6.80;2.72;;;;;;;13.02;47.92;100231.31;3115052;28;20049;-66
2023/12/27 06:47:57;;;;;;;5.60;2.63;;;;;;;13.08;47.62;100231.88;3126594;28;20059;-67
2023/12/27 06:49:28;;;;;;;6.65;2.47;;;;;;;13.14;47.17;100228.13;3127244;28;20140;-68
2023/12/27 06:51:02;;;;;;;7.80;2.45;;;;;;;13.20;47.24;100227.81;3127109;28;20055;-68
2023/12/27 06:52:33;;;;;;;5.20;2.10;;;;;;;13.26;47.02;100234.53;3127053;28;20083;-68
2023/12/27 06:54:05;;;;;;;6.28;2.13;;;;;;;13.33;47.12;100238.53;3129350;28;20060;-67
2023/12/27 06:55:36;;;;;;;12.38;2.70;;;;;;;13.36;47.02;100241.84;3129724;28;20057;-66
2023/12/27 06:57:08;;;;;;;6.63;2.50;;;;;;;13.44;46.78;100241.47;3129688;28;20585;-67
2023/12/27 06:58:39;;;;;;;7.90;2.08;;;;;;;13.46;46.55;100239.63;3129531;28;20579;-67
2023/12/27 07:00:13;;;;;;;6.28;2.35;;;;;;;13.56;46.47;100246.09;3129105;28;20163;-69
2023/12/27 07:01:44;;;;;;;12.40;2.85;;;;;;;13.57;46.08;100249.53;3129447;28;20378;-67
2023/12/27 07:03:16;;;;;;;8.80;2.60;;;;;;;13.65;46.14;100250.00;3129648;28;20091;-67
2023/12/27 07:04:47;;;;;;;8.25;2.53;;;;;;;13.70;45.83;100260.25;3129265;28;20057;-68
2023/12/27 07:06:19;;;;;;;6.07;1.98;;;;;;;13.72;45.66;100261.84;3129598;28;20171;-68
2023/12/27 07:07:50;;;;;;;5.30;2.22;;;;;;;13.80;45.22;100267.53;3128988;28;20500;-67
2023/12/27 07:09:22;;;;;;;10.13;2.85;;;;;;;13.83;45.46;100275.25;3129425;28;20049;-69
2023/12/27 07:10:53;;;;;;;9.63;2.65;;;;;;;13.87;45.38;100282.03;3129346;28;20053;-67